createdAt,value
2018-06-01T00:02:09.041Z,84.30
2018-06-01T00:04:36.594Z,84.20
2018-06-01T00:07:04.194Z,84.40
2018-06-01T00:09:32.069Z,84.70
2018-06-01T00:12:00.542Z,85.20
2018-06-01T00:14:28.228Z,85.10
2018-06-01T00:16:56.952Z,86.40
2018-06-01T00:19:24.540Z,86.40
2018-06-01T00:21:52.351Z,86.70
2018-06-01T00:24:19.997Z,87.10
2018-06-01T00:26:48.514Z,87.60
2018-06-01T00:29:16.212Z,87.60
2018-06-01T00:31:43.802Z,87.70
2018-06-01T00:34:12.285Z,88.50
2018-06-01T00:36:40.651Z,88.70
2018-06-01T00:39:09.084Z,88.80
2018-06-01T00:41:37.127Z,88.80
2018-06-01T00:44:04.682Z,88.90
2018-06-01T00:46:33.594Z,88.80
2018-06-01T00:49:01.203Z,88.40
2018-06-01T00:51:28.766Z,88.50
2018-06-01T00:53:57.300Z,88.30
2018-06-01T00:56:25.060Z,88.30
2018-06-01T00:58:52.667Z,88.20
2018-06-01T01:01:21.170Z,87.80
2018-06-01T01:03:49.497Z,87.40
2018-06-01T01:06:17.342Z,87.30
2018-06-01T01:08:45.009Z,87.80
2018-06-01T01:11:12.565Z,88.30
2018-06-01T01:13:40.813Z,88.30
2018-06-01T01:16:09.136Z,88.40
2018-06-01T01:18:36.698Z,88.40
2018-06-01T01:21:04.387Z,88.50
2018-06-01T01:23:32.008Z,88.50
2018-06-01T01:26:00.583Z,89.60
2018-06-01T01:28:28.179Z,89.40
2018-06-01T01:30:56.566Z,89.60
2018-06-01T01:33:24.254Z,89.60
2018-06-01T01:35:52.628Z,89.80
2018-06-01T01:38:20.972Z,89.90
2018-06-01T01:41:06.373Z,89.80
2018-06-01T01:43:33.951Z,90.00
2018-06-01T01:46:01.595Z,90.10
2018-06-01T01:48:30.078Z,90.20
2018-06-01T01:50:58.800Z,90.20
2018-06-01T01:53:26.832Z,90.20
2018-06-01T01:55:55.149Z,90.20
2018-06-01T01:58:22.913Z,90.20
2018-06-01T02:00:50.504Z,90.20
2018-06-01T02:03:18.151Z,90.20
2018-06-01T02:05:45.940Z,90.40
2018-06-01T02:08:13.573Z,90.60
2018-06-01T02:10:41.711Z,90.60
2018-06-01T02:13:12.174Z,90.60
2018-06-01T02:15:39.814Z,90.40
2018-06-01T02:18:07.454Z,90.40
2018-06-01T02:20:35.834Z,90.40
2018-06-01T02:23:04.166Z,90.50
2018-06-01T02:25:32.745Z,90.50
2018-06-01T02:28:00.343Z,90.60
2018-06-01T02:30:28.825Z,90.60
2018-06-01T02:32:57.810Z,90.70
2018-06-01T02:35:26.515Z,90.70
2018-06-01T02:37:55.429Z,90.70
2018-06-01T02:40:23.105Z,90.70
2018-06-01T02:42:50.667Z,90.80
2018-06-01T02:45:18.231Z,90.70
2018-06-01T02:47:46.618Z,90.80
2018-06-01T02:50:14.195Z,90.80
2018-06-01T02:52:41.796Z,90.80
2018-06-01T02:55:09.352Z,90.30
2018-06-01T02:57:36.918Z,90.60
2018-06-01T03:00:04.665Z,90.70
2018-06-01T03:02:32.529Z,90.80
2018-06-01T03:05:00.852Z,90.60
2018-06-01T03:07:28.435Z,90.50
2018-06-01T03:09:56.048Z,90.50
2018-06-01T03:12:23.627Z,90.40
2018-06-01T03:14:51.257Z,90.60
2018-06-01T03:17:19.066Z,90.80
2018-06-01T03:19:46.628Z,90.90
2018-06-01T03:22:14.910Z,90.70
2018-06-01T03:24:42.485Z,90.90
2018-06-01T03:27:12.253Z,90.90
2018-06-01T03:29:40.779Z,91.00
2018-06-01T03:32:09.177Z,91.00
2018-06-01T03:34:36.894Z,91.00
2018-06-01T03:37:04.447Z,91.00
2018-06-01T03:39:32.814Z,91.10
2018-06-01T03:42:00.589Z,91.20
2018-06-01T03:44:28.330Z,91.20
2018-06-01T03:46:55.911Z,91.50
2018-06-01T03:49:23.515Z,91.60
2018-06-01T03:51:52.500Z,91.60
2018-06-01T03:54:20.841Z,91.60
2018-06-01T03:56:48.419Z,91.60
2018-06-01T03:59:16.289Z,91.80
2018-06-01T04:01:43.855Z,92.00
2018-06-01T04:04:12.190Z,92.10
2018-06-01T04:06:39.833Z,92.10
2018-06-01T04:09:07.487Z,92.10
2018-06-01T04:11:36.422Z,92.10
2018-06-01T04:14:04.037Z,92.10
2018-06-01T04:16:31.603Z,92.00
2018-06-01T04:18:59.201Z,92.00
2018-06-01T04:21:26.762Z,92.00
2018-06-01T04:23:54.515Z,92.40
2018-06-01T04:26:22.124Z,92.00
2018-06-01T04:28:50.469Z,92.10
2018-06-01T04:31:18.051Z,92.10
2018-06-01T04:33:46.427Z,91.60
2018-06-01T04:36:14.924Z,91.90
2018-06-01T04:38:43.298Z,92.20
2018-06-01T04:41:11.674Z,92.30
2018-06-01T04:43:40.195Z,92.00
2018-06-01T04:46:07.963Z,92.00
2018-06-01T04:48:35.615Z,92.00
2018-06-01T04:51:03.302Z,92.30
2018-06-01T04:53:30.950Z,92.40
2018-06-01T04:55:58.503Z,92.20
2018-06-01T04:58:26.672Z,92.50
2018-06-01T05:00:54.265Z,91.60
2018-06-01T05:03:22.634Z,93.10
2018-06-01T05:05:50.355Z,93.70
2018-06-01T05:08:18.734Z,91.70
2018-06-01T05:10:46.861Z,91.60
2018-06-01T05:13:14.576Z,89.60
2018-06-01T05:15:42.261Z,91.10
2018-06-01T05:18:09.904Z,89.00
2018-06-01T05:20:39.193Z,89.60
2018-06-01T05:23:07.358Z,89.40
2018-06-01T05:25:36.207Z,84.30
2018-06-01T05:28:05.634Z,84.20
2018-06-01T05:30:34.416Z,84.80
2018-06-01T05:33:02.036Z,85.50
2018-06-01T05:35:30.257Z,83.60
2018-06-01T05:37:57.966Z,83.70
2018-06-01T05:40:25.627Z,83.50
2018-06-01T05:42:54.358Z,82.80
2018-06-01T05:45:24.056Z,80.20
2018-06-01T05:47:51.664Z,80.20
2018-06-01T05:50:20.565Z,80.20
2018-06-01T05:52:48.519Z,78.40
2018-06-01T05:55:16.090Z,78.00
2018-06-01T05:57:43.864Z,78.60
2018-06-01T06:00:11.509Z,76.30
2018-06-01T06:02:39.203Z,75.90
2018-06-01T06:05:06.835Z,77.40
2018-06-01T06:07:34.535Z,75.10
2018-06-01T06:10:02.191Z,74.70
2018-06-01T06:12:30.435Z,75.00
2018-06-01T06:14:58.525Z,75.20
2018-06-01T06:17:26.272Z,76.50
2018-06-01T06:19:54.793Z,76.10
2018-06-01T06:22:22.378Z,75.00
2018-06-01T06:24:50.943Z,72.30
2018-06-01T06:27:18.672Z,71.50
2018-06-01T06:29:46.269Z,72.90
2018-06-01T06:32:14.760Z,72.00
2018-06-01T06:34:43.955Z,71.00
2018-06-01T06:37:12.324Z,69.20
2018-06-01T06:39:41.607Z,70.20
2018-06-01T06:42:09.347Z,70.10
2018-06-01T06:44:37.221Z,69.20
2018-06-01T06:47:04.829Z,66.30
2018-06-01T06:49:33.170Z,62.60
2018-06-01T06:52:00.920Z,62.50
2018-06-01T06:54:28.522Z,62.30
2018-06-01T06:56:56.101Z,63.40
2018-06-01T06:59:24.535Z,62.90
2018-06-01T07:01:52.115Z,62.90
2018-06-01T07:04:19.700Z,61.80
2018-06-01T07:06:48.100Z,59.80
2018-06-01T07:09:15.891Z,59.80
2018-06-01T07:11:43.505Z,60.30
2018-06-01T07:14:11.062Z,59.80
2018-06-01T07:16:38.635Z,59.40
2018-06-01T07:19:06.249Z,59.90
2018-06-01T07:21:34.434Z,59.80
2018-06-01T07:24:02.004Z,60.20
2018-06-01T07:26:30.512Z,57.70
2018-06-01T07:28:58.143Z,57.60
2018-06-01T07:31:26.600Z,56.90
2018-06-01T07:33:54.188Z,56.90
2018-06-01T07:36:22.547Z,55.90
2018-06-01T07:38:50.269Z,55.90
2018-06-01T07:41:17.824Z,55.80
2018-06-01T07:43:45.452Z,54.70
2018-06-01T07:46:13.785Z,56.40
2018-06-01T07:48:41.371Z,56.40
2018-06-01T07:51:09.108Z,55.80
2018-06-01T07:53:36.702Z,55.00
2018-06-01T07:56:04.392Z,53.30
2018-06-01T07:58:31.967Z,54.40
2018-06-01T08:00:59.737Z,53.40
2018-06-01T08:03:27.308Z,54.40
2018-06-01T08:05:54.925Z,52.60
2018-06-01T08:08:23.285Z,53.70
2018-06-01T08:10:52.114Z,52.00
2018-06-01T08:13:19.672Z,52.00
2018-06-01T08:15:47.262Z,51.70
2018-06-01T08:18:14.921Z,50.30
2018-06-01T08:20:42.836Z,49.00
2018-06-01T08:23:10.431Z,47.00
2018-06-01T08:25:38.184Z,49.30
2018-06-01T08:28:05.957Z,48.00
2018-06-01T08:30:33.524Z,46.70
2018-06-01T08:33:01.238Z,46.80
2018-06-01T08:35:29.595Z,43.60
2018-06-01T08:37:58.035Z,44.60
2018-06-01T08:40:25.792Z,44.70
2018-06-01T08:42:53.338Z,45.50
2018-06-01T08:45:21.008Z,43.10
2018-06-01T08:47:48.601Z,41.30
2018-06-01T08:50:16.315Z,43.00
2018-06-01T08:52:44.108Z,43.10
2018-06-01T08:55:11.904Z,43.30
2018-06-01T08:57:39.554Z,43.10
2018-06-01T09:00:08.055Z,41.10
2018-06-01T09:02:36.338Z,41.10
2018-06-01T09:05:04.719Z,43.30
2018-06-01T09:07:34.141Z,41.20
2018-06-01T09:10:01.844Z,41.10
2018-06-01T09:12:29.575Z,42.40
2018-06-01T09:14:57.255Z,42.20
2018-06-01T09:17:24.858Z,42.10
2018-06-01T09:19:52.443Z,40.70
2018-06-01T09:22:21.826Z,42.60
2018-06-01T09:24:50.423Z,42.30
2018-06-01T09:27:18.807Z,43.40
2018-06-01T09:29:47.201Z,42.10
2018-06-01T09:32:14.864Z,42.20
2018-06-01T09:34:42.521Z,38.90
2018-06-01T09:37:10.091Z,39.70
2018-06-01T09:39:37.868Z,39.20
2018-06-01T09:42:05.546Z,39.80
2018-06-01T09:44:33.141Z,40.10
2018-06-01T09:47:01.482Z,38.80
2018-06-01T09:49:29.233Z,38.70
2018-06-01T09:51:56.803Z,35.50
2018-06-01T09:54:24.445Z,35.00
2018-06-01T09:56:52.072Z,36.00
2018-06-01T09:59:20.536Z,36.20
2018-06-01T10:01:48.138Z,36.20
2018-06-01T10:04:15.735Z,35.90
2018-06-01T10:06:43.374Z,37.10
2018-06-01T10:09:11.220Z,36.40
2018-06-01T10:11:39.578Z,36.00
2018-06-01T10:14:08.211Z,36.00
2018-06-01T10:16:35.771Z,36.00
2018-06-01T10:19:03.384Z,36.50
2018-06-01T10:21:31.913Z,38.20
2018-06-01T10:23:59.529Z,38.20
2018-06-01T10:26:28.014Z,37.00
2018-06-01T10:28:55.604Z,37.00
2018-06-01T10:31:23.216Z,37.00
2018-06-01T10:33:50.803Z,38.40
2018-06-01T10:36:19.271Z,38.60
2018-06-01T10:38:46.932Z,38.50
2018-06-01T10:41:14.544Z,38.70
2018-06-01T10:43:42.636Z,37.70
2018-06-01T10:46:10.243Z,38.90
2018-06-01T10:48:37.803Z,37.90
2018-06-01T10:51:06.137Z,35.00
2018-06-01T10:53:33.755Z,35.10
2018-06-01T10:56:01.423Z,37.00
2018-06-01T10:58:28.982Z,36.90
2018-06-01T11:00:56.592Z,38.50
2018-06-01T11:03:24.245Z,38.70
2018-06-01T11:05:51.833Z,39.00
2018-06-01T11:08:19.403Z,39.60
2018-06-01T11:10:47.782Z,38.40
2018-06-01T11:13:15.421Z,38.40
2018-06-01T11:15:43.014Z,38.70
2018-06-01T11:18:11.348Z,38.80
2018-06-01T11:20:38.915Z,38.90
2018-06-01T11:23:06.507Z,37.20
2018-06-01T11:25:34.869Z,36.00
2018-06-01T11:28:02.432Z,35.90
2018-06-01T11:30:30.247Z,37.70
2018-06-01T11:32:57.829Z,36.70
2018-06-01T11:35:25.399Z,34.50
2018-06-01T11:37:52.989Z,31.90
2018-06-01T11:40:20.546Z,30.70
2018-06-01T11:42:48.982Z,32.80
2018-06-01T11:45:16.638Z,32.70
2018-06-01T11:47:44.192Z,33.60
2018-06-01T11:50:11.766Z,33.50
2018-06-01T11:52:39.397Z,33.00
2018-06-01T11:55:07.722Z,34.80
2018-06-01T11:57:35.266Z,34.80
2018-06-01T12:00:02.945Z,33.80
2018-06-01T12:02:30.569Z,34.20
2018-06-01T12:04:58.206Z,34.40
2018-06-01T12:07:26.617Z,36.10
2018-06-01T12:09:54.171Z,36.00
2018-06-01T12:12:21.756Z,36.20
2018-06-01T12:14:49.341Z,36.60
2018-06-01T12:17:16.974Z,36.20
2018-06-01T12:19:44.636Z,34.70
2018-06-01T12:22:12.204Z,36.50
2018-06-01T12:24:39.750Z,34.00
2018-06-01T12:27:07.338Z,34.50
2018-06-01T12:29:35.033Z,34.10
2018-06-01T12:32:03.378Z,33.20
2018-06-01T12:34:30.949Z,33.10
2018-06-01T12:36:58.506Z,33.50
2018-06-01T12:39:26.110Z,33.20
2018-06-01T12:41:54.433Z,33.80
2018-06-01T12:44:22.036Z,33.80
2018-06-01T12:46:49.636Z,34.10
2018-06-01T12:49:17.222Z,33.70
2018-06-01T12:51:44.835Z,32.30
2018-06-01T12:54:13.184Z,33.00
2018-06-01T12:56:40.745Z,32.90
2018-06-01T12:59:08.353Z,31.40
2018-06-01T13:01:35.926Z,32.30
2018-06-01T13:04:03.507Z,32.20
2018-06-01T13:06:31.063Z,33.70
2018-06-01T13:08:58.663Z,34.60
2018-06-01T13:11:27.058Z,33.30
2018-06-01T13:13:54.641Z,33.30
2018-06-01T13:16:22.218Z,33.10
2018-06-01T13:18:49.843Z,33.00
2018-06-01T13:21:18.173Z,33.00
2018-06-01T13:23:45.735Z,33.00
2018-06-01T13:26:13.323Z,33.50
2018-06-01T13:28:40.924Z,32.50
2018-06-01T13:31:08.517Z,32.60
2018-06-01T13:33:36.128Z,33.40
2018-06-01T13:36:03.705Z,32.60
2018-06-01T13:38:31.298Z,32.60
2018-06-01T13:40:58.876Z,32.30
2018-06-01T13:43:26.479Z,32.00
2018-06-01T13:45:54.088Z,31.10
2018-06-01T13:48:21.664Z,30.20
2018-06-01T13:50:49.251Z,31.60
2018-06-01T13:53:17.577Z,31.20
2018-06-01T13:55:45.167Z,31.20
2018-06-01T13:58:12.764Z,32.10
2018-06-01T14:00:40.351Z,32.60
2018-06-01T14:03:07.988Z,32.60
2018-06-01T14:05:35.598Z,31.90
2018-06-01T14:08:03.194Z,32.00
2018-06-01T14:10:31.537Z,33.60
2018-06-01T14:12:59.734Z,33.60
2018-06-01T14:15:27.310Z,33.70
2018-06-01T14:17:55.728Z,35.60
2018-06-01T14:20:23.278Z,35.60
2018-06-01T14:22:50.856Z,35.80
2018-06-01T14:25:18.439Z,36.20
2018-06-01T14:27:46.023Z,35.70
2018-06-01T14:30:14.404Z,36.80
2018-06-01T14:32:42.744Z,37.30
2018-06-01T14:35:11.292Z,38.40
2018-06-01T14:37:39.726Z,37.30
2018-06-01T14:40:07.280Z,37.30
2018-06-01T14:42:34.901Z,38.30
2018-06-01T14:45:02.476Z,37.90
2018-06-01T14:47:30.043Z,38.00
2018-06-01T14:49:57.622Z,38.10
2018-06-01T14:52:25.227Z,38.50
2018-06-01T14:54:52.795Z,39.00
2018-06-01T14:57:20.408Z,39.60
2018-06-01T14:59:47.979Z,40.20
2018-06-01T15:02:15.549Z,39.80
2018-06-01T15:04:43.123Z,39.50
2018-06-01T15:07:11.522Z,39.80
2018-06-01T15:09:39.073Z,39.80
2018-06-01T15:12:07.495Z,38.90
2018-06-01T15:14:35.064Z,38.90
2018-06-01T15:17:02.667Z,39.70
2018-06-01T15:19:31.076Z,39.80
2018-06-01T15:21:58.694Z,39.80
2018-06-01T15:24:27.085Z,40.60
2018-06-01T15:26:55.657Z,40.30
2018-06-01T15:29:23.288Z,40.20
2018-06-01T15:31:50.876Z,40.70
2018-06-01T15:34:18.505Z,41.30
2018-06-01T15:36:46.087Z,41.90
2018-06-01T15:39:13.668Z,42.50
2018-06-01T15:41:42.096Z,43.20
2018-06-01T15:44:09.667Z,43.20
2018-06-01T15:46:37.279Z,43.70
2018-06-01T15:49:05.656Z,43.80
2018-06-01T15:51:33.170Z,43.80
2018-06-01T15:54:00.789Z,44.10
2018-06-01T15:56:29.195Z,44.50
2018-06-01T15:58:56.761Z,44.50
2018-06-01T16:01:24.413Z,44.60
2018-06-01T16:03:51.962Z,44.60
2018-06-01T16:06:19.517Z,44.90
2018-06-01T16:08:47.843Z,45.20
2018-06-01T16:11:15.417Z,45.20
2018-06-01T16:13:43.025Z,45.30
2018-06-01T16:16:10.577Z,45.30
2018-06-01T16:18:38.899Z,46.40
2018-06-01T16:21:06.540Z,46.40
2018-06-01T16:23:34.107Z,46.40
2018-06-01T16:26:01.783Z,46.90
2018-06-01T16:28:29.407Z,47.50
2018-06-01T16:30:56.957Z,47.50
2018-06-01T16:33:25.388Z,47.80
2018-06-01T16:35:52.935Z,47.70
2018-06-01T16:38:20.706Z,47.90
2018-06-01T16:40:48.306Z,47.90
2018-06-01T16:43:15.861Z,48.40
2018-06-01T16:45:43.455Z,48.50
2018-06-01T16:48:11.055Z,48.50
2018-06-01T16:50:38.666Z,48.30
2018-06-01T16:53:07.077Z,48.60
2018-06-01T16:55:34.638Z,48.60
2018-06-01T16:58:02.191Z,49.20
2018-06-01T17:00:29.807Z,50.90
2018-06-01T17:02:57.375Z,51.90
2018-06-01T17:05:25.004Z,53.30
2018-06-01T17:07:52.563Z,54.00
2018-06-01T17:10:20.173Z,54.50
2018-06-01T17:12:48.538Z,55.90
2018-06-01T17:15:16.090Z,55.90
2018-06-01T17:17:43.705Z,54.90
2018-06-01T17:20:11.327Z,53.60
2018-06-01T17:22:39.755Z,59.40
2018-06-01T17:25:07.284Z,59.60
2018-06-01T17:27:35.596Z,59.70
2018-06-01T17:30:03.325Z,59.70
2018-06-01T17:32:30.885Z,62.10
2018-06-01T17:34:59.197Z,62.00
2018-06-01T17:37:26.843Z,62.00
2018-06-01T17:39:54.467Z,63.30
2018-06-01T17:42:22.292Z,65.20
2018-06-01T17:44:50.053Z,68.20
2018-06-01T17:47:17.590Z,70.10
2018-06-01T17:49:45.138Z,70.90
2018-06-01T17:52:13.527Z,69.20
2018-06-01T17:54:41.095Z,69.20
2018-06-01T17:57:08.689Z,69.60
2018-06-01T17:59:36.228Z,70.00
2018-06-01T18:02:03.892Z,71.00
2018-06-01T18:04:31.465Z,71.40
2018-06-01T18:06:59.031Z,72.40
2018-06-01T18:09:26.641Z,73.30
2018-06-01T18:11:55.023Z,75.60
2018-06-01T18:14:23.406Z,71.70
2018-06-01T18:16:51.753Z,72.60
2018-06-01T18:19:19.373Z,72.40
2018-06-01T18:21:46.995Z,70.60
2018-06-01T18:24:15.360Z,68.80
2018-06-01T18:26:42.913Z,68.80
2018-06-01T18:29:10.529Z,70.80
2018-06-01T18:31:38.179Z,70.10
2018-06-01T18:34:05.788Z,68.70
2018-06-01T18:36:33.354Z,69.70
2018-06-01T18:39:00.956Z,70.60
2018-06-01T18:41:29.322Z,73.20
2018-06-01T18:43:57.767Z,74.60
2018-06-01T18:46:25.495Z,74.50
2018-06-01T18:48:53.037Z,74.40
2018-06-01T18:51:21.410Z,76.80
2018-06-01T18:53:49.789Z,76.10
2018-06-01T18:56:18.464Z,76.10
2018-06-01T18:58:46.855Z,78.60
2018-06-01T19:01:15.222Z,80.30
2018-06-01T19:03:42.833Z,80.30
2018-06-01T19:06:10.396Z,78.90
2018-06-01T19:11:11.915Z,77.40
2018-06-01T19:13:39.548Z,77.80
2018-06-01T19:16:07.191Z,78.20
2018-06-01T19:18:34.859Z,77.80
2018-06-01T19:21:02.436Z,78.20
2018-06-01T19:23:30.144Z,78.30
2018-06-01T19:25:58.523Z,77.90
2018-06-01T19:28:27.013Z,78.90
2018-06-01T19:30:55.383Z,79.80
2018-06-01T19:33:23.717Z,79.70
2018-06-01T19:35:51.382Z,79.80
2018-06-01T19:38:18.959Z,79.10
2018-06-01T19:40:46.531Z,78.40
2018-06-01T19:43:14.914Z,76.40
2018-06-01T19:45:42.510Z,76.40
2018-06-01T19:48:10.143Z,77.90
2018-06-01T19:50:38.487Z,77.40
2018-06-01T19:53:06.045Z,77.40
2018-06-01T19:55:33.746Z,78.80
2018-06-01T19:58:02.087Z,78.00
2018-06-01T20:00:29.656Z,78.00
2018-06-01T20:02:57.255Z,77.40
2018-06-01T20:05:24.823Z,76.80
2018-06-01T20:07:52.464Z,75.90
2018-06-01T20:10:20.801Z,78.20
2018-06-01T20:12:48.379Z,78.20
2018-06-01T20:15:16.049Z,81.20
2018-06-01T20:17:43.643Z,81.70
2018-06-01T20:20:12.062Z,81.20
2018-06-01T20:22:39.613Z,81.20
2018-06-01T20:25:07.165Z,81.60
2018-06-01T20:27:34.798Z,81.10
2018-06-01T20:30:03.123Z,82.20
2018-06-01T20:32:30.698Z,82.20
2018-06-01T20:34:58.300Z,82.30
2018-06-01T20:37:26.652Z,81.50
2018-06-01T20:39:54.323Z,81.50
2018-06-01T20:42:21.986Z,81.90
2018-06-01T20:44:49.562Z,82.10
2018-06-01T20:47:17.945Z,81.10
2018-06-01T20:49:46.262Z,80.90
2018-06-01T20:52:13.913Z,80.90
2018-06-01T20:54:41.463Z,80.80
2018-06-01T20:57:09.063Z,81.10
2018-06-01T20:59:36.717Z,82.50
2018-06-01T21:02:04.307Z,82.20
2018-06-01T21:04:31.931Z,82.30
2018-06-01T21:06:59.471Z,81.40
2018-06-01T21:09:27.019Z,81.40
2018-06-01T21:11:55.393Z,82.40
2018-06-01T21:14:23.720Z,83.40
2018-06-01T21:16:51.350Z,83.30
2018-06-01T21:19:18.903Z,83.90
2018-06-01T21:21:47.271Z,85.60
2018-06-01T21:24:15.628Z,83.80
2018-06-01T21:26:43.968Z,85.80
2018-06-01T21:29:11.694Z,85.80
2018-06-01T21:31:40.015Z,86.60
2018-06-01T21:34:07.590Z,86.50
2018-06-01T21:36:35.164Z,85.50
2018-06-01T21:39:02.811Z,85.00
2018-06-01T21:41:30.402Z,84.10
2018-06-01T21:43:57.970Z,83.90
2018-06-01T21:46:26.339Z,84.30
2018-06-01T21:48:53.910Z,84.20
2018-06-01T21:51:22.223Z,86.10
2018-06-01T21:53:49.830Z,86.00
2018-06-01T21:56:17.450Z,85.00
2018-06-01T21:58:45.002Z,84.50
2018-06-01T22:01:12.633Z,83.50
2018-06-01T22:03:40.967Z,84.50
2018-06-01T22:06:08.527Z,84.50
2018-06-01T22:08:36.092Z,85.30
2018-06-01T22:11:03.671Z,86.20
2018-06-01T22:13:31.231Z,86.20
2018-06-01T22:15:58.793Z,86.20
2018-06-01T22:18:26.386Z,86.00
2018-06-01T22:20:53.963Z,88.10
2018-06-01T22:23:21.528Z,88.50
2018-06-01T22:25:49.126Z,89.10
2018-06-01T22:28:16.689Z,89.40
2018-06-01T22:30:44.257Z,88.40
2018-06-01T22:33:11.843Z,89.30
2018-06-01T22:35:40.231Z,89.50
2018-06-01T22:38:08.615Z,90.00
2018-06-01T22:40:36.163Z,89.90
2018-06-01T22:43:04.543Z,90.20
2018-06-01T22:45:32.857Z,90.30
2018-06-01T22:48:00.404Z,90.30
2018-06-01T22:50:28.000Z,90.90
2018-06-01T22:52:55.664Z,91.60
2018-06-01T22:55:23.277Z,92.10
2018-06-01T22:57:50.966Z,92.30
2018-06-01T23:03:23.937Z,92.00
2018-06-01T23:05:51.531Z,92.00
2018-06-01T23:08:19.271Z,91.90
2018-06-01T23:10:46.888Z,91.90
2018-06-01T23:13:14.517Z,91.90
2018-06-01T23:15:42.135Z,92.10
2018-06-01T23:18:10.490Z,91.50
2018-06-01T23:20:38.121Z,91.40
2018-06-01T23:23:06.616Z,91.30
2018-06-01T23:25:34.210Z,91.30
2018-06-01T23:28:01.802Z,91.30
2018-06-01T23:30:29.429Z,91.30
2018-06-01T23:32:57.102Z,91.40
2018-06-01T23:35:24.734Z,91.40
2018-06-01T23:37:52.362Z,91.40
2018-06-01T23:40:20.005Z,91.30
2018-06-01T23:42:48.340Z,91.80
2018-06-01T23:45:15.921Z,91.80
2018-06-01T23:47:43.549Z,92.10
2018-06-01T23:50:11.143Z,92.40
2018-06-01T23:52:38.999Z,92.50
2018-06-01T23:55:06.687Z,92.30
2018-06-01T23:57:34.285Z,92.60
